createdAt,value
2023-03-19T00:01:06.973Z,30.27
2023-03-19T00:03:38.007Z,22.17
2023-03-19T00:06:07.739Z,25.80
2023-03-19T00:08:35.936Z,23.50
2023-03-19T00:11:07.522Z,24.58
2023-03-19T00:13:36.194Z,26.42
2023-03-19T00:16:04.357Z,26.83
2023-03-19T00:18:32.729Z,24.42
2023-03-19T00:21:02.707Z,24.05
2023-03-19T00:23:31.876Z,25.75
2023-03-19T00:25:59.946Z,24.70
2023-03-19T00:28:28.236Z,22.75
2023-03-19T00:30:56.402Z,24.98
2023-03-19T00:33:25.562Z,24.58
2023-03-19T00:35:53.853Z,22.90
2023-03-19T00:38:23.666Z,22.75
2023-03-19T00:40:52.327Z,23.25
2023-03-19T00:43:20.407Z,19.95
2023-03-19T00:45:48.752Z,23.75
2023-03-19T00:48:19.410Z,24.60
2023-03-19T00:50:47.531Z,23.23
2023-03-19T00:53:15.804Z,26.63
2023-03-19T00:55:45.408Z,20.98
2023-03-19T00:58:13.636Z,27.70
2023-03-19T01:00:42.118Z,23.40
2023-03-19T01:03:10.586Z,21.38
2023-03-19T01:05:41.488Z,29.88
2023-03-19T01:08:09.994Z,21.45
2023-03-19T01:10:39.202Z,25.48
2023-03-19T01:13:08.696Z,20.90
2023-03-19T01:15:37.592Z,24.05
2023-03-19T01:18:05.727Z,23.95
2023-03-19T01:20:34.572Z,22.00
2023-03-19T01:23:03.344Z,20.40
2023-03-19T01:25:32.050Z,20.15
2023-03-19T01:28:01.012Z,20.73
2023-03-19T01:30:30.576Z,23.15
2023-03-19T01:32:59.173Z,20.67
2023-03-19T01:35:30.223Z,25.13
2023-03-19T01:37:58.410Z,21.20
2023-03-19T01:40:27.292Z,21.70
2023-03-19T01:42:57.934Z,25.17
2023-03-19T01:45:44.895Z,22.38
2023-03-19T01:48:20.966Z,21.63
2023-03-19T01:50:53.923Z,28.10
2023-03-19T01:53:25.174Z,20.75
2023-03-19T01:55:57.558Z,26.67
2023-03-19T02:00:56.865Z,22.50
2023-03-19T02:03:25.399Z,26.08
2023-03-19T02:05:54.382Z,28.58
2023-03-19T02:08:23.947Z,27.70
2023-03-19T02:10:53.840Z,22.70
2023-03-19T02:13:22.702Z,24.08
2023-03-19T02:15:51.073Z,23.80
2023-03-19T02:18:21.195Z,21.83
2023-03-19T02:20:52.708Z,25.05
2023-03-19T02:23:27.618Z,24.43
2023-03-19T02:26:06.947Z,23.02
2023-03-19T02:28:36.692Z,26.92
2023-03-19T02:31:05.242Z,26.15
2023-03-19T02:33:33.461Z,25.45
2023-03-19T02:36:04.114Z,29.13
2023-03-19T02:38:34.629Z,25.23
2023-03-19T02:41:06.439Z,26.05
2023-03-19T02:43:36.178Z,26.08
2023-03-19T02:46:05.573Z,25.05
2023-03-19T02:48:35.018Z,22.02
2023-03-19T02:51:03.184Z,22.17
2023-03-19T02:53:31.432Z,26.58
2023-03-19T02:55:59.462Z,24.20
2023-03-19T02:58:29.275Z,26.70
2023-03-19T03:00:57.620Z,27.58
2023-03-19T03:03:26.696Z,21.92
2023-03-19T03:05:56.991Z,27.65
2023-03-19T03:08:25.055Z,26.02
2023-03-19T03:10:53.431Z,24.95
2023-03-19T03:13:21.813Z,26.90
2023-03-19T03:15:51.921Z,23.73
2023-03-19T03:18:20.647Z,26.50
2023-03-19T03:20:49.287Z,22.67
2023-03-19T03:23:17.538Z,21.92
2023-03-19T03:25:45.971Z,22.73
2023-03-19T03:28:14.218Z,28.55
2023-03-19T03:30:42.273Z,26.08
2023-03-19T03:33:11.950Z,24.92
2023-03-19T03:35:40.367Z,29.52
2023-03-19T03:38:08.396Z,28.13
2023-03-19T03:40:36.993Z,24.65
2023-03-19T03:43:05.482Z,24.02
2023-03-19T03:45:33.581Z,27.63
2023-03-19T03:48:02.133Z,27.98
2023-03-19T03:50:31.809Z,26.67
2023-03-19T03:53:00.351Z,30.08
2023-03-19T03:55:29.743Z,29.23
2023-03-19T03:57:59.436Z,24.77
2023-03-19T04:00:27.927Z,33.05
2023-03-19T04:02:56.142Z,25.15
2023-03-19T04:05:24.306Z,27.58
2023-03-19T04:07:53.796Z,31.27
2023-03-19T04:10:22.020Z,35.10
2023-03-19T04:12:50.024Z,25.77
2023-03-19T04:15:19.557Z,26.67
2023-03-19T04:17:49.157Z,29.00
2023-03-19T04:20:21.029Z,32.80
2023-03-19T04:22:50.025Z,26.45
2023-03-19T04:25:19.601Z,24.42
2023-03-19T04:27:47.705Z,32.28
2023-03-19T04:30:16.450Z,27.40
2023-03-19T04:32:45.294Z,28.42
2023-03-19T04:35:13.418Z,28.92
2023-03-19T04:37:43.767Z,30.85
2023-03-19T04:40:13.962Z,30.27
2023-03-19T04:42:44.657Z,28.95
2023-03-19T04:45:13.953Z,30.77
2023-03-19T04:47:42.676Z,29.27
2023-03-19T04:50:13.152Z,30.08
2023-03-19T04:52:41.700Z,30.95
2023-03-19T04:55:10.838Z,38.35
2023-03-19T04:57:39.521Z,35.70
2023-03-19T05:00:12.250Z,31.75
2023-03-19T05:02:40.787Z,34.97
2023-03-19T05:05:11.077Z,34.70
2023-03-19T05:07:39.271Z,36.92
2023-03-19T05:10:09.442Z,35.55
2023-03-19T05:12:37.748Z,33.45
2023-03-19T05:15:07.293Z,36.47
2023-03-19T05:17:36.853Z,33.58
2023-03-19T05:20:05.932Z,31.38
2023-03-19T05:22:34.421Z,32.53
2023-03-19T05:25:02.647Z,31.50
2023-03-19T05:27:30.836Z,30.08
2023-03-19T05:29:58.849Z,33.47
2023-03-19T05:32:28.323Z,33.95
2023-03-19T05:34:58.633Z,33.25
2023-03-19T05:37:27.525Z,37.00
2023-03-19T05:39:55.950Z,37.10
2023-03-19T05:42:24.164Z,31.60
2023-03-19T05:44:52.433Z,34.47
2023-03-19T05:47:20.697Z,32.72
2023-03-19T05:49:49.467Z,33.42
2023-03-19T05:52:18.902Z,38.97
2023-03-19T05:54:49.471Z,35.60
2023-03-19T05:57:18.415Z,34.80
2023-03-19T05:59:47.126Z,36.20
2023-03-19T06:02:15.211Z,40.75
2023-03-19T06:04:43.540Z,37.95
2023-03-19T06:07:13.399Z,37.60
2023-03-19T06:09:43.157Z,35.42
2023-03-19T06:12:11.597Z,40.85
2023-03-19T06:14:39.771Z,36.60
2023-03-19T06:17:09.294Z,37.35
2023-03-19T06:19:39.940Z,38.22
2023-03-19T06:22:08.964Z,39.88
2023-03-19T06:24:37.874Z,40.97
2023-03-19T06:27:09.897Z,44.53
2023-03-19T06:29:38.085Z,44.55
2023-03-19T06:32:07.633Z,43.00
2023-03-19T06:34:36.212Z,51.25
2023-03-19T06:37:04.499Z,44.42
2023-03-19T06:39:33.236Z,53.47
2023-03-19T06:42:04.070Z,48.97
2023-03-19T06:44:36.995Z,48.65
2023-03-19T06:47:05.531Z,48.83
2023-03-19T06:49:33.726Z,52.95
2023-03-19T06:52:02.266Z,48.22
2023-03-19T06:54:30.927Z,46.55
2023-03-19T06:57:00.139Z,50.38
2023-03-19T06:59:29.593Z,49.55
2023-03-19T07:01:59.779Z,47.85
2023-03-19T07:04:28.278Z,52.55
2023-03-19T07:06:59.676Z,47.05
2023-03-19T07:09:28.841Z,50.58
2023-03-19T07:11:59.831Z,50.33
2023-03-19T07:14:28.305Z,56.85
2023-03-19T07:16:59.686Z,54.17
2023-03-19T07:21:59.787Z,57.85
2023-03-19T07:24:28.218Z,60.88
2023-03-19T07:26:57.404Z,53.58
2023-03-19T07:29:26.233Z,58.45
2023-03-19T07:31:55.388Z,57.83
2023-03-19T07:34:23.735Z,51.58
2023-03-19T07:36:54.383Z,58.95
2023-03-19T07:39:22.560Z,52.38
2023-03-19T07:41:50.695Z,46.65
2023-03-19T07:44:19.496Z,48.85
2023-03-19T07:46:47.734Z,45.42
2023-03-19T07:49:17.302Z,51.83
2023-03-19T07:51:47.872Z,43.38
2023-03-19T07:54:19.399Z,47.55
2023-03-19T07:56:47.886Z,50.00
2023-03-19T07:59:18.065Z,50.05
2023-03-19T08:01:46.277Z,42.55
2023-03-19T08:04:15.497Z,45.45
2023-03-19T08:06:43.701Z,53.70
2023-03-19T08:09:12.108Z,50.13
2023-03-19T08:11:41.801Z,46.40
2023-03-19T08:14:09.835Z,48.55
2023-03-19T08:16:39.392Z,48.97
2023-03-19T08:19:07.855Z,55.78
2023-03-19T08:21:37.679Z,54.55
2023-03-19T08:24:07.917Z,51.95
2023-03-19T08:26:37.830Z,48.85
2023-03-19T08:29:10.589Z,56.05
2023-03-19T08:31:39.003Z,50.70
2023-03-19T08:34:10.387Z,57.53
2023-03-19T08:36:38.449Z,54.38
2023-03-19T08:39:06.605Z,56.08
2023-03-19T08:41:34.812Z,54.03
2023-03-19T08:44:02.844Z,58.80
2023-03-19T08:46:33.526Z,55.83
2023-03-19T08:49:04.207Z,43.75
2023-03-19T08:51:32.690Z,50.17
2023-03-19T08:54:01.141Z,52.08
2023-03-19T08:56:29.599Z,48.53
2023-03-19T08:59:05.746Z,47.95
2023-03-19T09:01:35.348Z,48.25
2023-03-19T09:04:04.116Z,48.33
2023-03-19T09:06:34.052Z,43.03
2023-03-19T09:09:03.265Z,40.70
2023-03-19T09:11:31.577Z,40.78
2023-03-19T09:13:59.548Z,43.92
2023-03-19T09:16:28.039Z,40.20
2023-03-19T09:18:59.385Z,39.63
2023-03-19T09:21:27.758Z,32.70
2023-03-19T09:23:56.385Z,36.25
2023-03-19T09:26:24.762Z,30.55
2023-03-19T09:28:52.935Z,26.75
2023-03-19T09:31:22.160Z,33.15
2023-03-19T09:33:50.305Z,30.15
2023-03-19T09:36:20.679Z,35.22
2023-03-19T09:38:52.102Z,31.70
2023-03-19T09:41:28.616Z,27.80
2023-03-19T09:44:02.748Z,40.45
2023-03-19T09:46:37.669Z,28.23
2023-03-19T09:49:14.653Z,29.65
2023-03-19T09:51:46.527Z,35.33
2023-03-19T09:54:27.373Z,33.60
2023-03-19T09:56:56.216Z,30.45
2023-03-19T09:59:27.094Z,33.47
2023-03-19T10:02:00.613Z,24.83
2023-03-19T10:04:41.985Z,25.98
2023-03-19T10:07:20.900Z,25.02
2023-03-19T10:09:56.756Z,25.35
2023-03-19T10:12:35.942Z,27.42
2023-03-19T10:15:14.318Z,24.15
2023-03-19T10:17:46.343Z,24.33
2023-03-19T10:20:23.067Z,31.17
2023-03-19T10:23:00.035Z,27.13
2023-03-19T10:25:41.717Z,22.92
2023-03-19T10:28:16.094Z,22.07
2023-03-19T10:30:47.848Z,24.10
2023-03-19T10:33:20.898Z,21.83
2023-03-19T10:35:51.128Z,21.13
2023-03-19T10:38:25.470Z,22.90
2023-03-19T10:41:05.702Z,19.80
2023-03-19T10:43:35.169Z,18.35
2023-03-19T10:46:03.841Z,17.90
2023-03-19T10:48:33.702Z,17.67
2023-03-19T10:51:05.602Z,17.40
2023-03-19T10:53:37.171Z,19.10
2023-03-19T10:56:07.206Z,15.10
2023-03-19T10:58:36.955Z,16.35
2023-03-19T11:01:08.485Z,16.50
2023-03-19T11:03:38.095Z,18.33
2023-03-19T11:06:10.781Z,17.33
2023-03-19T11:08:41.093Z,22.63
2023-03-19T11:11:27.113Z,18.30
2023-03-19T11:13:55.589Z,17.65
2023-03-19T11:16:23.833Z,17.15
2023-03-19T11:18:52.497Z,20.60
2023-03-19T11:21:25.655Z,16.73
2023-03-19T11:24:02.864Z,16.80
2023-03-19T11:26:31.360Z,16.90
2023-03-19T11:29:06.262Z,15.38
2023-03-19T11:31:39.108Z,14.75
2023-03-19T11:34:18.465Z,19.08
2023-03-19T11:36:52.483Z,15.80
2023-03-19T11:39:30.496Z,17.65
2023-03-19T11:42:11.595Z,17.35
2023-03-19T11:44:47.014Z,15.95
2023-03-19T11:47:27.363Z,18.33
2023-03-19T11:50:05.855Z,18.05
2023-03-19T11:52:37.041Z,16.38
2023-03-19T11:55:21.348Z,16.33
2023-03-19T11:58:01.555Z,18.13
2023-03-19T12:00:32.806Z,16.60
2023-03-19T12:03:17.697Z,17.63
2023-03-19T12:05:54.504Z,19.60
2023-03-19T12:08:31.678Z,14.15
2023-03-19T12:11:11.252Z,18.63
2023-03-19T12:13:50.097Z,16.98
2023-03-19T12:16:24.396Z,14.13
2023-03-19T12:19:11.723Z,15.68
2023-03-19T12:21:50.797Z,17.17
2023-03-19T12:24:29.273Z,17.10
2023-03-19T12:27:04.597Z,17.77
2023-03-19T12:29:40.847Z,15.35
2023-03-19T12:32:18.317Z,12.73
2023-03-19T12:34:51.429Z,15.38
2023-03-19T12:37:23.570Z,14.15
2023-03-19T12:40:00.754Z,14.95
2023-03-19T12:42:38.094Z,14.25
2023-03-19T12:45:13.061Z,13.55
2023-03-19T12:47:41.891Z,14.82
2023-03-19T12:50:12.604Z,16.20
2023-03-19T12:52:42.066Z,17.27
2023-03-19T12:55:25.897Z,14.38
2023-03-19T12:57:58.855Z,16.02
2023-03-19T13:00:31.517Z,14.27
2023-03-19T13:03:18.666Z,13.07
2023-03-19T13:05:48.602Z,16.55
2023-03-19T13:08:21.102Z,13.88
2023-03-19T13:10:49.197Z,12.75
2023-03-19T13:13:31.251Z,14.18
2023-03-19T13:16:02.093Z,12.63
2023-03-19T13:18:39.560Z,13.68
2023-03-19T13:21:19.570Z,13.05
2023-03-19T13:23:49.703Z,16.00
2023-03-19T13:26:19.164Z,14.02
2023-03-19T13:29:05.083Z,12.80
2023-03-19T13:31:37.202Z,12.52
2023-03-19T13:34:07.616Z,17.23
2023-03-19T13:36:41.600Z,13.70
2023-03-19T13:39:14.975Z,12.10
2023-03-19T13:41:53.474Z,10.63
2023-03-19T13:44:30.740Z,12.65
2023-03-19T13:47:02.159Z,11.82
2023-03-19T13:49:35.352Z,16.77
2023-03-19T13:52:58.038Z,10.23
2023-03-19T13:55:34.977Z,11.52
2023-03-19T13:58:38.370Z,14.07
2023-03-19T14:01:11.657Z,35.47
2023-03-19T14:03:43.648Z,37.47
2023-03-19T14:08:56.753Z,10.98
2023-03-19T14:11:31.105Z,13.13
2023-03-19T14:14:02.637Z,10.68
2023-03-19T14:16:35.574Z,13.35
2023-03-19T14:19:06.042Z,12.38
2023-03-19T14:21:46.784Z,10.40
2023-03-19T14:24:55.366Z,11.05
2023-03-19T14:27:25.662Z,11.52
2023-03-19T14:29:55.682Z,12.20
2023-03-19T14:32:27.219Z,13.55
2023-03-19T14:34:56.681Z,11.88
2023-03-19T14:37:26.187Z,9.20
2023-03-19T14:40:00.794Z,9.88
2023-03-19T14:42:35.189Z,12.30
2023-03-19T14:45:29.911Z,12.07
2023-03-19T14:48:27.178Z,49.85
2023-03-19T14:51:07.044Z,60.35
2023-03-19T14:53:40.613Z,55.55
2023-03-19T14:56:15.655Z,24.50
2023-03-19T14:58:53.728Z,19.73
2023-03-19T15:01:22.889Z,16.00
2023-03-19T15:03:55.175Z,16.05
2023-03-19T15:06:23.679Z,19.05
2023-03-19T15:08:52.225Z,14.27
2023-03-19T15:11:33.302Z,16.23
2023-03-19T15:14:23.841Z,14.43
2023-03-19T15:17:02.283Z,14.57
2023-03-19T15:19:34.867Z,13.95
2023-03-19T15:22:11.961Z,12.90
2023-03-19T15:24:41.252Z,18.23
2023-03-19T15:27:20.408Z,9.73
2023-03-19T15:29:51.691Z,9.57
2023-03-19T15:32:52.165Z,10.37
2023-03-19T15:35:25.976Z,10.57
2023-03-19T15:37:56.811Z,10.20
2023-03-19T15:40:27.232Z,11.35
2023-03-19T15:42:56.676Z,13.80
2023-03-19T15:45:26.885Z,12.85
2023-03-19T15:47:59.063Z,14.93
2023-03-19T15:53:23.248Z,16.10
2023-03-19T15:55:52.842Z,12.20
2023-03-19T15:58:27.348Z,15.38
2023-03-19T16:01:01.037Z,15.02
2023-03-19T16:03:34.968Z,15.77
2023-03-19T16:06:05.282Z,11.57
2023-03-19T16:08:34.081Z,17.10
2023-03-19T16:11:19.517Z,16.48
2023-03-19T16:13:59.584Z,12.23
2023-03-19T16:16:32.690Z,13.30
2023-03-19T16:19:00.863Z,14.75
2023-03-19T16:21:37.042Z,12.85
2023-03-19T16:24:13.011Z,13.63
2023-03-19T16:26:43.118Z,15.45
2023-03-19T16:29:19.970Z,14.27
2023-03-19T16:31:52.932Z,13.75
2023-03-19T16:34:32.440Z,13.52
2023-03-19T16:37:01.408Z,16.13
2023-03-19T16:39:37.128Z,10.80
2023-03-19T16:42:30.051Z,13.20
2023-03-19T16:47:30.958Z,13.23
2023-03-19T16:49:59.514Z,14.27
2023-03-19T16:52:29.367Z,16.02
2023-03-19T16:54:58.029Z,14.90
2023-03-19T16:57:28.241Z,13.75
2023-03-19T16:59:58.040Z,13.93
2023-03-19T17:02:29.694Z,16.58
2023-03-19T17:04:58.965Z,20.13
2023-03-19T17:07:37.248Z,15.55
2023-03-19T17:10:06.328Z,15.38
2023-03-19T17:12:34.610Z,19.35
2023-03-19T17:15:04.653Z,34.13
2023-03-19T17:17:35.570Z,17.67
2023-03-19T17:20:06.918Z,17.10
2023-03-19T17:22:36.101Z,16.65
2023-03-19T17:25:07.367Z,18.45
2023-03-19T17:27:36.115Z,17.65
2023-03-19T17:30:07.078Z,19.88
2023-03-19T17:32:36.595Z,15.40
2023-03-19T17:35:05.357Z,16.58
2023-03-19T17:37:33.554Z,16.02
2023-03-19T17:40:01.623Z,18.85
2023-03-19T17:42:32.355Z,15.07
2023-03-19T17:45:01.221Z,17.55
2023-03-19T17:47:29.184Z,18.70
2023-03-19T17:49:58.777Z,19.00
2023-03-19T17:52:26.947Z,15.05
2023-03-19T17:54:56.199Z,15.35
2023-03-19T17:57:26.183Z,17.80
2023-03-19T17:59:54.200Z,15.77
2023-03-19T18:02:26.318Z,12.32
2023-03-19T18:04:54.737Z,14.45
2023-03-19T18:07:25.492Z,14.23
2023-03-19T18:09:53.817Z,14.60
2023-03-19T18:12:22.650Z,14.52
2023-03-19T18:14:51.323Z,12.80
2023-03-19T18:17:20.563Z,11.40
2023-03-19T18:19:50.946Z,14.40
2023-03-19T18:22:21.190Z,10.82
2023-03-19T18:24:50.646Z,14.05
2023-03-19T18:27:19.100Z,12.57
2023-03-19T18:29:47.108Z,10.07
2023-03-19T18:32:17.322Z,11.77
2023-03-19T18:34:45.464Z,10.05
2023-03-19T18:37:16.715Z,16.50
2023-03-19T18:39:45.969Z,11.40
2023-03-19T18:42:15.727Z,8.52
2023-03-19T18:44:43.976Z,11.52
2023-03-19T18:47:15.733Z,10.00
2023-03-19T18:49:47.404Z,8.38
2023-03-19T18:52:19.446Z,9.50
2023-03-19T18:54:50.017Z,7.70
2023-03-19T18:57:21.455Z,10.05
2023-03-19T18:59:51.542Z,7.55
2023-03-19T19:02:25.468Z,9.05
2023-03-19T19:04:53.834Z,10.88
2023-03-19T19:07:23.097Z,9.18
2023-03-19T19:09:52.895Z,9.88
2023-03-19T19:12:23.426Z,13.20
2023-03-19T19:14:52.062Z,7.85
2023-03-19T19:17:24.271Z,8.50
2023-03-19T19:19:52.651Z,6.65
2023-03-19T19:22:21.169Z,7.75
2023-03-19T19:24:49.364Z,8.18
2023-03-19T19:27:18.568Z,5.93
2023-03-19T19:29:49.841Z,7.50
2023-03-19T19:32:25.200Z,8.57
2023-03-19T19:34:55.806Z,8.25
2023-03-19T19:37:25.805Z,6.57
2023-03-19T19:39:53.930Z,6.88
2023-03-19T19:42:23.891Z,8.13
2023-03-19T19:44:58.920Z,7.82
2023-03-19T19:47:28.306Z,9.07
2023-03-19T19:49:58.882Z,8.20
2023-03-19T19:52:27.507Z,12.15
2023-03-19T19:54:55.719Z,7.05
2023-03-19T19:57:25.492Z,6.78
2023-03-19T19:59:59.448Z,7.80
2023-03-19T20:02:29.674Z,8.38
2023-03-19T20:04:58.369Z,7.05
2023-03-19T20:07:27.224Z,7.03
2023-03-19T20:09:56.636Z,5.47
2023-03-19T20:12:27.789Z,5.85
2023-03-19T20:14:56.438Z,5.57
2023-03-19T20:17:31.499Z,5.95
2023-03-19T20:20:01.076Z,7.00
2023-03-19T20:22:29.946Z,9.07
2023-03-19T20:24:58.677Z,5.53
2023-03-19T20:27:39.213Z,6.57
2023-03-19T20:30:11.778Z,9.85
2023-03-19T20:32:42.095Z,10.23
2023-03-19T20:35:18.400Z,6.88
2023-03-19T20:37:48.224Z,7.47
2023-03-19T20:40:17.430Z,7.50
2023-03-19T20:42:48.679Z,7.22
2023-03-19T20:45:19.834Z,9.32
2023-03-19T20:47:53.006Z,10.27
2023-03-19T20:50:29.052Z,7.40
2023-03-19T20:53:01.171Z,8.15
2023-03-19T20:55:32.074Z,7.47
2023-03-19T20:58:01.828Z,6.50
2023-03-19T21:00:32.144Z,6.20
2023-03-19T21:03:03.296Z,7.45
2023-03-19T21:05:36.483Z,6.90
2023-03-19T21:08:09.396Z,6.30
2023-03-19T21:10:42.357Z,6.38
2023-03-19T21:13:14.473Z,7.25
2023-03-19T21:15:44.447Z,5.82
2023-03-19T21:18:14.938Z,4.75
2023-03-19T21:20:46.162Z,14.18
2023-03-19T21:23:17.619Z,8.60
2023-03-19T21:25:46.321Z,8.30
2023-03-19T21:28:18.961Z,8.15
2023-03-19T21:30:47.999Z,7.30
2023-03-19T21:33:29.327Z,11.27
2023-03-19T21:35:58.307Z,6.55
2023-03-19T21:38:29.552Z,11.52
2023-03-19T21:40:59.528Z,6.10
2023-03-19T21:43:37.236Z,6.57
2023-03-19T21:46:22.881Z,11.93
2023-03-19T21:48:55.484Z,5.35
2023-03-19T21:51:25.340Z,9.48
2023-03-19T21:53:54.118Z,6.32
2023-03-19T21:56:24.276Z,5.65
2023-03-19T21:58:53.531Z,8.45
2023-03-19T22:01:23.996Z,7.40
2023-03-19T22:03:54.705Z,7.75
2023-03-19T22:06:24.350Z,6.15
2023-03-19T22:08:53.914Z,6.05
2023-03-19T22:11:26.057Z,8.93
2023-03-19T22:13:55.460Z,4.85
2023-03-19T22:16:25.403Z,5.70
2023-03-19T22:18:55.620Z,4.75
2023-03-19T22:21:24.639Z,6.97
2023-03-19T22:23:53.273Z,7.07
2023-03-19T22:26:31.655Z,6.32
2023-03-19T22:29:00.824Z,5.05
2023-03-19T22:31:29.393Z,8.13
2023-03-19T22:33:59.433Z,5.75
2023-03-19T22:36:27.754Z,10.05
2023-03-19T22:38:55.978Z,6.03
2023-03-19T22:41:28.210Z,6.68
2023-03-19T22:43:58.102Z,10.43
2023-03-19T22:46:28.072Z,5.68
2023-03-19T22:48:56.690Z,7.25
2023-03-19T22:51:27.755Z,11.55
2023-03-19T22:53:55.905Z,7.57
2023-03-19T22:56:24.302Z,6.15
2023-03-19T22:58:52.720Z,8.50
2023-03-19T23:01:31.547Z,6.85
2023-03-19T23:04:16.967Z,8.02
2023-03-19T23:06:47.098Z,6.18
2023-03-19T23:09:18.776Z,9.07
2023-03-19T23:11:50.254Z,7.57
2023-03-19T23:14:28.894Z,5.97
2023-03-19T23:17:02.101Z,8.30
2023-03-19T23:22:07.138Z,6.50
2023-03-19T23:24:35.476Z,8.13
2023-03-19T23:27:04.198Z,7.05
2023-03-19T23:29:35.516Z,8.38
2023-03-19T23:32:05.130Z,5.65
2023-03-19T23:34:39.667Z,8.52
2023-03-19T23:37:17.088Z,6.32
2023-03-19T23:39:47.871Z,10.57
2023-03-19T23:42:26.549Z,6.93
2023-03-19T23:44:57.803Z,9.45
2023-03-19T23:47:26.259Z,9.05
2023-03-19T23:49:55.683Z,6.43
2023-03-19T23:52:25.840Z,7.78
2023-03-19T23:54:57.069Z,7.43
2023-03-19T23:57:27.956Z,10.75
2023-03-19T23:59:56.204Z,7.82
